Sunny Hill Estates, Illinois
Current Conditions -  °F | °C
As of 6:52 AM on Tuesday 21 Oct 2014 (Local Time) from KMLI Reporting Station
Clear Clear  
Wind Chill: 37°   Ceiling: Unl
Heat Index: 37°   Visibility: 8mi
Dew Point: 35°   Wind: 0mph
Humidity: 93%   Direction: NA
Pressure: 30.14"   Gusts: NA
Location:  41.3669°N, 90.3966°W
Report Text: KMLI 211152Z 00000KT 8SM CLR 03/02 A3014 RMK AO2 SLP207 I6000 T00280017 10061 20022 53020
Loading
Personal Weather Stations






























Interactive Weather Map
Tropical Storm Tracking
New forecast layout! Learn more

10-Day Weather Forecast

Advertisements
Track Severe Weather on mobile